createdAt,value
2023-03-01T00:01:11.517Z,98.66
2023-03-01T00:06:11.340Z,98.77
2023-03-01T00:11:11.401Z,98.29
2023-03-01T00:16:11.229Z,98.71
2023-03-01T00:21:11.206Z,98.92
2023-03-01T00:26:11.099Z,99.24
2023-03-01T00:31:11.268Z,98.92
2023-03-01T00:36:10.979Z,98.65
2023-03-01T00:41:10.964Z,98.82
2023-03-01T00:46:10.878Z,98.71
2023-03-01T00:51:10.890Z,98.55
2023-03-01T00:56:10.785Z,99.28
2023-03-01T01:01:10.729Z,99.39
2023-03-01T01:06:10.660Z,99.60
2023-03-01T01:11:10.600Z,99.64
2023-03-01T01:16:10.554Z,99.54
2023-03-01T01:21:10.470Z,99.43
2023-03-01T01:26:10.398Z,99.33
2023-03-01T01:31:10.356Z,99.75
2023-03-01T01:36:10.229Z,99.64
2023-03-01T01:41:10.174Z,99.85
2023-03-01T01:46:10.167Z,99.99
2023-03-01T01:51:10.111Z,99.54
2023-03-01T01:56:09.998Z,99.75
2023-03-01T02:01:09.903Z,99.64
2023-03-01T02:06:09.842Z,99.96
2023-03-01T02:11:09.825Z,99.69
2023-03-01T02:16:09.828Z,99.69
2023-03-01T02:21:09.967Z,99.73
2023-03-01T02:26:09.628Z,99.52
2023-03-01T02:31:09.617Z,99.99
2023-03-01T02:36:09.490Z,99.99
2023-03-01T02:41:09.425Z,99.99
2023-03-01T02:46:09.442Z,99.99
2023-03-01T02:51:09.289Z,99.99
2023-03-01T02:56:09.245Z,99.99
2023-03-01T03:01:09.197Z,99.78
2023-03-01T03:06:09.099Z,99.88
2023-03-01T03:11:09.037Z,99.88
2023-03-01T03:16:08.987Z,99.93
2023-03-01T03:21:08.950Z,99.99
2023-03-01T03:26:08.903Z,99.99
2023-03-01T03:31:08.894Z,99.51
2023-03-01T03:36:08.798Z,99.99
2023-03-01T03:41:08.670Z,99.99
2023-03-01T03:46:08.738Z,99.87
2023-03-01T03:51:08.553Z,99.87
2023-03-01T03:56:08.537Z,99.66
2023-03-01T04:01:08.514Z,99.66
2023-03-01T04:06:08.355Z,99.87
2023-03-01T04:11:08.372Z,99.76
2023-03-01T04:16:08.275Z,99.28
2023-03-01T04:21:08.164Z,99.80
2023-03-01T04:26:08.138Z,99.99
2023-03-01T04:31:08.813Z,99.99
2023-03-01T04:36:08.118Z,99.99
2023-03-01T04:41:07.937Z,99.99
2023-03-01T04:46:07.844Z,99.99
2023-03-01T04:51:07.811Z,99.91
2023-03-01T04:56:07.768Z,99.85
2023-03-01T05:01:07.714Z,99.99
2023-03-01T05:06:07.584Z,99.99
2023-03-01T05:11:07.527Z,99.99
2023-03-01T05:16:07.595Z,99.90
2023-03-01T05:21:07.460Z,99.99
2023-03-01T05:26:09.509Z,99.99
2023-03-01T05:31:07.315Z,99.90
2023-03-01T05:36:07.224Z,99.99
2023-03-01T05:41:07.212Z,99.99
2023-03-01T05:46:07.155Z,99.99
2023-03-01T05:51:07.022Z,99.75
2023-03-01T05:56:07.017Z,99.16
2023-03-01T06:01:06.889Z,99.26
2023-03-01T06:06:06.877Z,99.43
2023-03-01T06:11:06.769Z,99.11
2023-03-01T06:16:06.785Z,99.18
2023-03-01T06:21:06.660Z,99.02
2023-03-01T06:26:06.602Z,98.77
2023-03-01T06:31:06.845Z,97.96
2023-03-01T06:36:06.458Z,95.83
2023-03-01T06:41:06.582Z,93.49
2023-03-01T06:46:06.379Z,91.05
2023-03-01T06:51:06.359Z,88.10
2023-03-01T06:56:06.212Z,85.41
2023-03-01T07:01:06.513Z,85.08
2023-03-01T07:06:06.072Z,81.80
2023-03-01T07:11:06.074Z,81.41
2023-03-01T07:16:05.972Z,78.42
2023-03-01T07:21:05.913Z,76.06
2023-03-01T07:26:05.820Z,77.20
2023-03-01T07:31:05.779Z,75.32
2023-03-01T07:36:05.702Z,72.10
2023-03-01T07:41:05.632Z,74.22
2023-03-01T07:46:05.598Z,72.73
2023-03-01T07:51:05.519Z,70.90
2023-03-01T07:56:05.413Z,67.06
2023-03-01T08:01:05.351Z,67.50
2023-03-01T08:06:05.303Z,68.02
2023-03-01T08:11:05.250Z,65.81
2023-03-01T08:16:05.234Z,66.75
2023-03-01T08:21:05.095Z,66.71
2023-03-01T08:26:05.081Z,68.05
2023-03-01T08:31:04.996Z,68.54
2023-03-01T08:36:04.905Z,69.45
2023-03-01T08:41:04.870Z,67.90
2023-03-01T08:46:04.790Z,70.59
2023-03-01T08:51:04.706Z,67.93
2023-03-01T08:56:04.622Z,69.55
2023-03-01T09:01:04.605Z,70.28
2023-03-01T09:06:04.522Z,66.22
2023-03-01T09:11:04.493Z,73.70
2023-03-01T09:16:04.358Z,69.07
2023-03-01T09:21:04.336Z,69.62
2023-03-01T09:26:04.274Z,68.10
2023-03-01T09:31:04.621Z,68.90
2023-03-01T09:36:04.187Z,67.13
2023-03-01T09:41:04.105Z,68.10
2023-03-01T09:46:04.014Z,68.65
2023-03-01T09:51:03.931Z,66.96
2023-03-01T09:56:03.898Z,68.30
2023-03-01T10:01:03.821Z,71.00
2023-03-01T10:06:03.767Z,67.20
2023-03-01T10:11:03.661Z,66.75
2023-03-01T10:16:03.636Z,66.35
2023-03-01T10:21:03.539Z,66.00
2023-03-01T10:26:03.488Z,66.00
2023-03-01T10:31:03.443Z,66.08
2023-03-01T10:36:03.435Z,64.80
2023-03-01T10:41:03.299Z,66.29
2023-03-01T10:46:03.282Z,63.71
2023-03-01T10:51:03.216Z,62.13
2023-03-01T10:56:03.087Z,61.40
2023-03-01T11:01:03.024Z,59.64
2023-03-01T11:06:02.968Z,61.20
2023-03-01T11:11:02.898Z,57.97
2023-03-01T11:16:02.885Z,57.76
2023-03-01T11:21:02.849Z,57.53
2023-03-01T11:26:02.671Z,57.81
2023-03-01T11:31:08.617Z,56.98
2023-03-01T11:36:03.634Z,55.43
2023-03-01T11:41:02.500Z,55.82
2023-03-01T11:46:02.399Z,55.82
2023-03-01T11:51:02.373Z,54.90
2023-03-01T11:56:02.273Z,53.32
2023-03-01T12:01:02.210Z,54.04
2023-03-01T12:06:02.154Z,51.67
2023-03-01T12:11:02.080Z,51.98
2023-03-01T12:16:02.081Z,52.23
2023-03-01T12:21:02.038Z,53.16
2023-03-01T12:26:01.970Z,53.27
2023-03-01T12:31:01.905Z,54.71
2023-03-01T12:36:01.804Z,56.75
2023-03-01T12:41:01.747Z,55.30
2023-03-01T12:46:01.781Z,55.18
2023-03-01T12:51:01.537Z,56.73
2023-03-01T12:56:01.505Z,55.82
2023-03-01T13:01:01.491Z,57.68
2023-03-01T13:06:01.361Z,57.99
2023-03-01T13:11:01.277Z,56.03
2023-03-01T13:16:01.282Z,55.93
2023-03-01T13:21:01.180Z,55.72
2023-03-01T13:26:01.122Z,56.13
2023-03-01T13:31:01.043Z,54.48
2023-03-01T13:36:01.073Z,54.19
2023-03-01T13:41:00.926Z,55.30
2023-03-01T13:46:01.024Z,55.30
2023-03-01T13:51:00.787Z,53.63
2023-03-01T13:56:00.711Z,54.77
2023-03-01T14:01:00.769Z,54.69
2023-03-01T14:06:12.725Z,56.13
2023-03-01T14:11:01.515Z,55.30
2023-03-01T14:16:00.512Z,53.86
2023-03-01T14:21:00.359Z,53.74
2023-03-01T14:26:00.313Z,54.14
2023-03-01T14:31:00.323Z,53.96
2023-03-01T14:36:00.257Z,54.35
2023-03-01T14:41:00.156Z,56.10
2023-03-01T14:46:00.125Z,55.38
2023-03-01T14:50:59.980Z,54.90
2023-03-01T14:55:59.910Z,55.93
2023-03-01T15:00:59.848Z,57.37
2023-03-01T15:05:59.814Z,55.85
2023-03-01T15:10:59.793Z,56.57
2023-03-01T15:15:59.737Z,56.46
2023-03-01T15:20:59.612Z,58.53
2023-03-01T15:25:59.533Z,56.54
2023-03-01T15:30:59.533Z,56.96
2023-03-01T15:35:59.418Z,57.78
2023-03-01T15:40:59.341Z,57.26
2023-03-01T15:45:59.312Z,57.40
2023-03-01T15:50:59.218Z,57.32
2023-03-01T15:55:59.128Z,57.11
2023-03-01T16:01:02.674Z,58.59
2023-03-01T16:05:59.004Z,56.41
2023-03-01T16:10:58.978Z,56.96
2023-03-01T16:15:58.954Z,57.99
2023-03-01T16:20:58.841Z,59.57
2023-03-01T16:25:58.793Z,58.64
2023-03-01T16:30:58.712Z,59.29
2023-03-01T16:35:58.660Z,60.48
2023-03-01T16:40:58.560Z,60.77
2023-03-01T16:45:58.591Z,60.25
2023-03-01T16:50:58.527Z,61.00
2023-03-01T16:55:58.353Z,61.65
2023-03-01T17:00:58.385Z,61.55
2023-03-01T17:05:58.232Z,64.55
2023-03-01T17:10:58.307Z,62.48
2023-03-01T17:15:58.183Z,62.27
2023-03-01T17:20:58.062Z,64.17
2023-03-01T17:25:57.966Z,65.78
2023-03-01T17:30:57.926Z,68.20
2023-03-01T17:35:57.908Z,67.71
2023-03-01T17:40:57.798Z,70.27
2023-03-01T17:45:57.820Z,72.07
2023-03-01T17:50:57.673Z,72.86
2023-03-01T17:55:57.656Z,74.25
2023-03-01T18:00:57.587Z,74.60
2023-03-01T18:05:58.843Z,76.40
2023-03-01T18:10:57.374Z,75.36
2023-03-01T18:15:57.341Z,73.97
2023-03-01T18:20:57.261Z,73.66
2023-03-01T18:25:57.194Z,73.66
2023-03-01T18:30:57.231Z,73.17
2023-03-01T18:35:57.454Z,73.10
2023-03-01T18:40:57.081Z,74.94
2023-03-01T18:45:57.151Z,74.73
2023-03-01T18:50:57.462Z,74.21
2023-03-01T18:55:58.209Z,74.32
2023-03-01T19:00:56.770Z,75.67
2023-03-01T19:05:56.831Z,77.86
2023-03-01T19:10:56.814Z,75.67
2023-03-01T19:15:56.653Z,75.05
2023-03-01T19:21:03.298Z,76.54
2023-03-01T19:25:57.431Z,76.54
2023-03-01T19:30:56.510Z,76.92
2023-03-01T19:35:56.868Z,73.62
2023-03-01T19:40:56.286Z,72.72
2023-03-01T19:45:56.214Z,72.96
2023-03-01T19:50:56.208Z,74.11
2023-03-01T19:55:56.046Z,74.63
2023-03-01T20:00:56.136Z,77.24
2023-03-01T20:05:56.022Z,75.18
2023-03-01T20:10:55.854Z,76.06
2023-03-01T20:15:55.869Z,76.79
2023-03-01T20:20:55.795Z,76.93
2023-03-01T20:25:55.669Z,78.18
2023-03-01T20:30:55.645Z,79.05
2023-03-01T20:35:56.222Z,79.68
2023-03-01T20:40:55.489Z,81.39
2023-03-01T20:45:55.417Z,81.49
2023-03-01T20:50:55.452Z,83.48
2023-03-01T20:55:55.332Z,80.27
2023-03-01T21:00:55.324Z,80.83
2023-03-01T21:05:55.141Z,81.77
2023-03-01T21:10:55.159Z,82.50
2023-03-01T21:15:55.124Z,83.06
2023-03-01T21:20:55.047Z,83.94
2023-03-01T21:25:54.879Z,85.26
2023-03-01T21:30:54.936Z,84.53
2023-03-01T21:35:54.847Z,83.21
2023-03-01T21:40:55.807Z,84.61
2023-03-01T21:45:54.702Z,84.25
2023-03-01T21:50:54.605Z,82.16
2023-03-01T21:55:54.515Z,83.35
2023-03-01T22:00:54.517Z,84.50
2023-03-01T22:05:54.430Z,85.59
2023-03-01T22:10:54.348Z,86.46
2023-03-01T22:15:54.382Z,88.98
2023-03-01T22:20:54.307Z,89.82
2023-03-01T22:25:54.125Z,90.23
2023-03-01T22:30:54.036Z,89.29
2023-03-01T22:35:54.034Z,89.09
2023-03-01T22:40:53.963Z,89.02
2023-03-01T22:45:53.932Z,90.38
2023-03-01T22:50:53.838Z,90.49
2023-03-01T22:55:53.782Z,91.79
2023-03-01T23:00:53.700Z,92.52
2023-03-01T23:05:53.709Z,92.63
2023-03-01T23:10:53.722Z,92.73
2023-03-01T23:15:53.666Z,92.63
2023-03-01T23:20:53.495Z,92.99
2023-03-01T23:25:53.423Z,93.30
2023-03-01T23:30:53.440Z,92.77
2023-03-01T23:35:53.350Z,92.82
2023-03-01T23:40:53.190Z,94.43
2023-03-01T23:45:53.205Z,94.96
2023-03-01T23:50:53.131Z,95.02
2023-03-01T23:55:53.100Z,94.12
